Catàleg de serveis del Meteocat
Campanya meteocatpedra

Dades de l'estació automàtica Perafita

?
?
Resum diari 21:30 TU
Dades diàries de l'estació meteorològica
Temperatura mitjana 5.2 °C
Temperatura màxima 10.6 °C 13:01 TU
Temperatura mínima 0.4 °C 2:15 TU
Humitat relativa mitjana 89%
Precipitació acumulada 0.0 mm
Ratxa màxima del vent (6 m) 20.9 km/h - 207º 13:21 TU
Irradiació solar global 6.6 MJ/m2

El tram horari està expressat en Temps Universal (TU). Cal sumar una hora en horari d'hivern i dues en horari d'estiu per passar a l'hora oficial.

Perafita

Metadades estació meteorol´gica
Municipi Perafita
Comarca Osona
Altitud 774 m
Data alta 03.07.1995
Estat actual Operativa
Dades de període
Període
TU
TM
°C
TX
°C
TN
°C
HRM
%
PPT
mm
VVM (6 m)
km/h
DVM (6 m)
graus
VVX (6 m)
km/h
RS
W/m2
00:00 - 00:30 1.3 1.5 0.9 100 0.0 4.0 56 6.5 0
00:30 - 01:00 1.0 1.4 0.4 100 0.0 3.6 49 6.8 0
01:00 - 01:30 0.8 1.2 0.6 100 0.0 4.0 54 6.1 0
01:30 - 02:00 1.0 1.4 0.7 100 0.0 3.6 65 6.1 0
02:00 - 02:30 0.8 1.1 0.4 100 0.0 4.0 59 7.2 0
02:30 - 03:00 1.3 1.8 0.7 100 0.0 6.5 57 9.7 0
03:00 - 03:30 1.7 1.8 1.4 100 0.0 6.1 61 9.4 0
03:30 - 04:00 2.0 2.1 1.8 100 0.0 7.2 52 12.6 0
04:00 - 04:30 1.9 2.1 1.8 99 0.0 5.8 57 11.2 0
04:30 - 05:00 2.3 2.7 2.1 98 0.0 6.5 56 13.3 0
05:00 - 05:30 2.5 2.6 2.4 98 0.0 5.0 51 10.1 0
05:30 - 06:00 2.7 2.8 2.6 96 0.0 6.5 49 10.1 0
06:00 - 06:30 2.5 2.9 2.3 96 0.0 5.8 51 13.7 0
06:30 - 07:00 3.1 3.6 2.8 92 0.0 8.3 47 14.8 5
07:00 - 07:30 4.1 4.2 3.7 85 0.0 10.4 40 17.3 27
07:30 - 08:00 4.2 4.5 4.0 87 0.0 8.3 52 13.7 46
08:00 - 08:30 5.0 5.4 4.6 84 0.0 7.2 34 12.2 79
08:30 - 09:00 5.7 5.8 5.5 83 0.0 7.2 36 13.3 65
09:00 - 09:30 5.9 6.3 5.8 82 0.0 6.8 30 13.3 83
09:30 - 10:00 6.9 7.3 6.3 81 0.0 2.5 11 5.4 134
10:00 - 10:30 7.9 8.4 7.4 79 0.0 1.8 266 6.1 212
10:30 - 11:00 7.8 8.1 7.7 79 0.0 3.2 254 7.2 180
11:00 - 11:30 7.8 8.0 7.7 79 0.0 5.0 245 9.0 185
11:30 - 12:00 8.1 8.6 7.9 78 0.0 4.7 227 10.4 241
12:00 - 12:30 9.3 9.7 8.6 74 0.0 6.8 206 15.1 395
12:30 - 13:00 9.7 10.5 9.0 74 0.0 9.0 205 17.6 488
13:00 - 13:30 9.7 10.6 8.9 73 0.0 7.9 186 20.9 402
13:30 - 14:00 9.1 9.6 8.3 75 0.0 9.7 181 19.1 385
14:00 - 14:30 9.0 9.3 8.7 75 0.0 6.5 179 16.2 285
14:30 - 15:00 9.3 9.6 9.0 74 0.0 6.8 192 14.8 239
15:00 - 15:30 9.0 9.4 8.5 75 0.0 9.7 209 18.4 148
15:30 - 16:00 8.3 8.8 7.9 79 0.0 6.1 187 13.7 75
16:00 - 16:30 7.7 8.2 7.0 82 0.0 3.6 174 9.4 22
16:30 - 17:00 6.4 6.9 5.7 88 0.0 2.9 195 7.6 0
17:00 - 17:30 5.5 6.0 5.2 94 0.0 1.8 155 8.3 0
17:30 - 18:00 5.4 6.0 4.6 93 0.0 2.5 137 6.8 0
18:00 - 18:30 4.8 5.3 4.5 96 0.0 2.5 105 7.2 0
18:30 - 19:00 5.2 5.4 5.1 95 0.0 2.2 132 7.6 0
19:00 - 19:30 5.5 5.6 5.1 95 0.0 3.2 116 9.7 0
19:30 - 20:00 5.6 5.6 5.5 95 0.0 3.2 69 8.6 0
20:00 - 20:30 5.3 5.4 5.2 96 0.0 2.2 102 6.5 0
20:30 - 21:00 5.6 5.7 5.3 95 0.0 4.0 208 11.5 0
21:00 - 21:30 5.6 5.7 5.6 95 0.0 2.2 235 5.4 0
21:30 - 22:00 5.6 5.6 5.6 96 0.0 1.4 200 5.0 0

Les dades en taronja només han passat un control de qualitat automàtic. Resta pendent la seva validació definitiva.